Terminal Aerodrome Forecast
Issued by NWS Pueblo, CO

Current Version | Previous Version | Text Only | Print | Product List | Glossary On
Versions: 1 2 3 4 5 6 7 8 9 10 11 12 13 14 15 16 17 18 19 20 21 22 23 24 25 26 27
000
FTUS45 KPUB 012255 AAA
TAFALS
TAF AMD
KALS 012255Z 0123/0218 27012KT P6SM VCTS SCT050CB BKN100
      TEMPO 0123/0202 VRB20G30KT P6SM TSRA SCT040 BKN060CB
     FM020200 18007KT P6SM VCSH BKN060
     FM020500 VRB04KT P6SM BKN100=

USA.gov is the U.S. government's official web portal to all federal, state and local government web resources and services.